createdAt,value
2019-06-10T00:00:33.372Z,3.63
2019-06-10T00:03:07.201Z,3.73
2019-06-10T00:05:38.501Z,3.73
2019-06-10T00:08:12.193Z,3.70
2019-06-10T00:10:44.684Z,3.80
2019-06-10T00:13:16.008Z,3.83
2019-06-10T00:15:47.194Z,3.40
2019-06-10T00:18:37.311Z,3.90
2019-06-10T00:20:51.446Z,3.70
2019-06-10T00:23:22.741Z,3.60
2019-06-10T00:25:53.924Z,3.73
2019-06-10T00:28:24.824Z,4.00
2019-06-10T00:30:55.996Z,2.87
2019-06-10T00:33:27.140Z,4.00
2019-06-10T00:35:58.755Z,3.87
2019-06-10T00:38:31.847Z,3.80
2019-06-10T00:41:05.655Z,3.47
2019-06-10T00:43:41.008Z,4.20
2019-06-10T00:46:13.351Z,4.23
2019-06-10T00:48:44.795Z,4.20
2019-06-10T00:51:15.755Z,3.70
2019-06-10T00:53:46.995Z,4.40
2019-06-10T00:56:21.348Z,3.97
2019-06-10T00:58:51.789Z,3.80
2019-06-10T01:01:22.712Z,3.50
2019-06-10T01:03:53.900Z,4.20
2019-06-10T01:06:26.104Z,3.90
2019-06-10T01:09:00.505Z,4.00
2019-06-10T01:11:32.576Z,3.80
2019-06-10T01:14:05.173Z,3.67
2019-06-10T01:16:36.460Z,3.17
2019-06-10T01:19:10.371Z,3.47
2019-06-10T01:21:43.145Z,3.20
2019-06-10T01:24:14.822Z,3.97
2019-06-10T01:26:47.764Z,3.10
2019-06-10T01:29:21.003Z,3.40
2019-06-10T01:32:05.161Z,3.50
2019-06-10T01:34:36.500Z,3.43
2019-06-10T01:37:07.425Z,3.70
2019-06-10T01:39:38.579Z,3.73
2019-06-10T01:42:12.815Z,3.67
2019-06-10T01:44:44.221Z,3.90
2019-06-10T01:47:16.146Z,3.57
2019-06-10T01:49:51.911Z,3.80
2019-06-10T01:52:23.260Z,3.50
2019-06-10T01:55:06.004Z,4.00
2019-06-10T01:57:37.725Z,4.00
2019-06-10T02:00:15.569Z,3.53
2019-06-10T02:02:44.961Z,3.57
2019-06-10T02:05:18.298Z,3.97
2019-06-10T02:07:51.660Z,4.03
2019-06-10T02:10:23.166Z,3.93
2019-06-10T02:12:54.454Z,4.50
2019-06-10T02:15:26.025Z,3.97
2019-06-10T02:17:57.196Z,4.60
2019-06-10T02:20:28.376Z,4.30
2019-06-10T02:23:01.956Z,4.33
2019-06-10T02:25:33.009Z,4.57
2019-06-10T02:28:04.194Z,3.80
2019-06-10T02:30:41.752Z,4.73
2019-06-10T02:33:11.975Z,4.87
2019-06-10T02:35:48.468Z,4.53
2019-06-10T02:38:19.857Z,4.67
2019-06-10T02:40:46.703Z,4.57
2019-06-10T02:43:23.899Z,4.43
2019-06-10T02:45:53.272Z,4.87
2019-06-10T02:48:30.096Z,4.00
2019-06-10T02:51:05.965Z,4.60
2019-06-10T02:53:37.631Z,4.70
2019-06-10T02:56:09.417Z,4.37
2019-06-10T02:58:44.964Z,4.70
2019-06-10T03:01:16.364Z,4.40
2019-06-10T03:03:49.606Z,4.70
2019-06-10T03:06:23.492Z,3.67
2019-06-10T03:08:55.060Z,4.60
2019-06-10T03:11:29.567Z,4.30
2019-06-10T03:13:59.048Z,4.20
2019-06-10T03:16:43.145Z,4.00
2019-06-10T03:19:15.876Z,4.33
2019-06-10T03:21:47.251Z,4.50
2019-06-10T03:24:19.118Z,5.10
2019-06-10T03:26:52.204Z,4.40
2019-06-10T03:29:24.973Z,3.93
2019-06-10T03:31:56.851Z,3.80
2019-06-10T03:34:36.237Z,4.20
2019-06-10T03:37:02.483Z,4.10
2019-06-10T03:39:33.704Z,4.03
2019-06-10T03:42:04.964Z,4.10
2019-06-10T03:44:36.143Z,4.47
2019-06-10T03:47:08.886Z,3.87
2019-06-10T03:49:49.948Z,4.50
2019-06-10T03:52:13.179Z,4.70
2019-06-10T03:54:45.485Z,4.20
2019-06-10T03:57:17.170Z,4.63
2019-06-10T03:59:48.658Z,4.53
2019-06-10T04:02:22.320Z,4.37
2019-06-10T04:04:54.366Z,4.53
2019-06-10T04:07:28.250Z,4.63
2019-06-10T04:09:58.848Z,4.53
2019-06-10T04:12:32.577Z,4.27
2019-06-10T04:15:03.288Z,4.43
2019-06-10T04:17:35.424Z,5.00
2019-06-10T04:20:11.535Z,4.87
2019-06-10T04:22:39.881Z,4.20
2019-06-10T04:25:12.127Z,4.40
2019-06-10T04:27:44.360Z,4.40
2019-06-10T04:30:16.596Z,4.50
2019-06-10T04:32:48.355Z,4.67
2019-06-10T04:35:21.008Z,4.40
2019-06-10T04:37:54.153Z,4.87
2019-06-10T04:40:27.496Z,5.63
2019-06-10T04:42:58.699Z,5.30
2019-06-10T04:45:32.211Z,4.40
2019-06-10T04:48:03.125Z,4.70
2019-06-10T04:50:42.305Z,4.90
2019-06-10T04:53:06.997Z,4.83
2019-06-10T04:55:38.077Z,4.67
2019-06-10T04:58:09.299Z,4.83
2019-06-10T05:00:42.762Z,4.80
2019-06-10T05:03:13.879Z,5.15
2019-06-10T05:05:45.199Z,5.20
2019-06-10T05:08:16.486Z,4.50
2019-06-10T05:10:53.123Z,4.77
2019-06-10T05:13:27.028Z,5.30
2019-06-10T05:15:59.509Z,5.33
2019-06-10T05:18:33.322Z,4.90
2019-06-10T05:21:03.918Z,4.67
2019-06-10T05:23:35.230Z,4.27
2019-06-10T05:26:06.272Z,4.60
2019-06-10T05:28:37.596Z,4.30
2019-06-10T05:31:08.875Z,4.53
2019-06-10T05:33:42.592Z,4.70
2019-06-10T05:36:13.474Z,4.53
2019-06-10T05:38:48.057Z,4.40
2019-06-10T05:41:19.568Z,4.20
2019-06-10T05:43:52.264Z,4.27
2019-06-10T05:46:25.493Z,4.23
2019-06-10T05:48:57.417Z,4.40
2019-06-10T05:51:29.093Z,4.17
2019-06-10T05:54:02.193Z,4.50
2019-06-10T05:56:35.507Z,4.00
2019-06-10T05:59:07.133Z,4.83
2019-06-10T06:01:43.195Z,4.40
2019-06-10T06:04:17.037Z,3.77
2019-06-10T06:06:48.812Z,4.60
2019-06-10T06:09:22.133Z,3.70
2019-06-10T06:11:54.161Z,3.87
2019-06-10T06:14:25.799Z,3.90
2019-06-10T06:16:57.776Z,4.20
2019-06-10T06:19:30.239Z,4.33
2019-06-10T06:22:02.857Z,4.00
2019-06-10T06:24:35.676Z,4.27
2019-06-10T06:27:08.442Z,4.07
2019-06-10T06:29:42.978Z,5.10
2019-06-10T06:32:23.605Z,4.10
2019-06-10T06:34:56.498Z,4.07
2019-06-10T06:37:39.518Z,3.80
2019-06-10T06:43:14.921Z,3.93
2019-06-10T06:46:02.224Z,4.30
2019-06-10T06:48:36.977Z,4.87
2019-06-10T06:51:13.014Z,4.07
2019-06-10T06:53:52.001Z,3.57
2019-06-10T06:56:35.618Z,4.37
2019-06-10T06:59:05.880Z,3.73
2019-06-10T07:01:39.195Z,4.20
2019-06-10T07:04:12.999Z,3.90
2019-06-10T07:06:44.874Z,4.17
2019-06-10T07:09:18.570Z,3.80
2019-06-10T07:11:52.907Z,3.80
2019-06-10T07:14:28.637Z,3.70
2019-06-10T07:17:03.916Z,3.67
2019-06-10T07:19:39.507Z,4.07
2019-06-10T07:22:15.278Z,4.03
2019-06-10T07:24:47.470Z,4.03
2019-06-10T07:27:16.947Z,3.93
2019-06-10T07:29:48.566Z,3.70
2019-06-10T07:32:22.737Z,3.73
2019-06-10T07:35:02.995Z,3.63
2019-06-10T07:37:38.221Z,3.60
2019-06-10T07:40:13.049Z,3.33
2019-06-10T07:42:45.419Z,3.00
2019-06-10T07:45:17.068Z,3.70
2019-06-10T07:47:52.290Z,3.27
2019-06-10T07:50:23.509Z,3.43
2019-06-10T07:52:57.864Z,3.10
2019-06-10T07:55:29.652Z,3.60
2019-06-10T07:58:02.499Z,3.10
2019-06-10T08:00:38.943Z,3.40
2019-06-10T08:03:12.798Z,3.30
2019-06-10T08:05:46.319Z,3.17
2019-06-10T08:08:18.537Z,3.27
2019-06-10T08:10:49.889Z,2.83
2019-06-10T08:13:22.660Z,2.80
2019-06-10T08:15:54.403Z,2.90
2019-06-10T08:18:26.219Z,2.90
2019-06-10T08:20:57.849Z,3.23
2019-06-10T08:23:29.301Z,3.40
2019-06-10T08:26:03.172Z,3.10
2019-06-10T08:28:33.641Z,2.90
2019-06-10T08:31:05.066Z,3.10
2019-06-10T08:33:37.242Z,3.13
2019-06-10T08:36:08.695Z,3.00
2019-06-10T08:38:43.479Z,3.60
2019-06-10T08:41:14.276Z,3.17
2019-06-10T08:43:48.508Z,3.10
2019-06-10T08:46:22.334Z,3.10
2019-06-10T08:48:53.496Z,3.27
2019-06-10T08:51:25.184Z,3.07
2019-06-10T08:53:58.046Z,2.70
2019-06-10T08:56:29.322Z,2.60
2019-06-10T08:59:03.103Z,2.63
2019-06-10T09:01:34.409Z,2.80
2019-06-10T09:04:06.817Z,2.23
2019-06-10T09:06:41.034Z,3.10
2019-06-10T09:09:13.071Z,2.60
2019-06-10T09:11:47.945Z,2.27
2019-06-10T09:14:17.712Z,2.37
2019-06-10T09:16:50.694Z,2.20
2019-06-10T09:19:22.265Z,2.07
2019-06-10T09:21:56.314Z,2.73
2019-06-10T09:24:28.962Z,2.47
2019-06-10T09:27:02.855Z,2.30
2019-06-10T09:29:33.720Z,2.47
2019-06-10T09:32:05.037Z,2.70
2019-06-10T09:34:43.060Z,2.60
2019-06-10T09:37:14.244Z,3.07
2019-06-10T09:39:55.091Z,2.70
2019-06-10T09:42:23.887Z,2.77
2019-06-10T09:44:57.517Z,2.77
2019-06-10T09:47:33.975Z,2.73
2019-06-10T09:50:04.940Z,2.90
2019-06-10T09:52:41.544Z,3.27
2019-06-10T09:55:13.254Z,2.67
2019-06-10T09:57:58.456Z,2.67
2019-06-10T10:00:45.188Z,2.33
2019-06-10T10:03:15.783Z,2.90
2019-06-10T10:06:09.937Z,3.30
2019-06-10T10:08:34.677Z,2.90
2019-06-10T10:11:06.171Z,3.03
2019-06-10T10:13:49.230Z,2.50
2019-06-10T10:16:27.481Z,2.70
2019-06-10T10:19:05.062Z,3.05
2019-06-10T10:21:36.549Z,2.50
2019-06-10T10:24:12.274Z,2.97
2019-06-10T10:26:48.597Z,2.70
2019-06-10T10:29:24.339Z,2.87
2019-06-10T10:31:56.053Z,2.73
2019-06-10T10:34:33.172Z,3.10
2019-06-10T10:37:04.354Z,3.20
2019-06-10T10:39:36.195Z,2.67
2019-06-10T10:45:13.853Z,2.65
2019-06-10T10:47:46.948Z,2.62
2019-06-10T10:50:18.987Z,3.10
2019-06-10T10:52:57.097Z,3.00
2019-06-10T10:55:32.920Z,3.43
2019-06-10T10:58:08.097Z,2.98
2019-06-10T11:00:46.848Z,3.30
2019-06-10T11:03:22.665Z,3.08
2019-06-10T11:06:00.221Z,3.52
2019-06-10T11:08:26.762Z,3.17
2019-06-10T11:11:03.630Z,3.40
2019-06-10T11:13:36.648Z,3.35
2019-06-10T11:16:08.100Z,3.33
2019-06-10T11:18:42.248Z,3.00
2019-06-10T11:21:14.681Z,3.35
2019-06-10T11:23:46.265Z,3.58
2019-06-10T11:26:18.840Z,3.60
2019-06-10T11:28:52.831Z,3.67
2019-06-10T11:31:23.427Z,4.00
2019-06-10T11:33:57.860Z,4.20
2019-06-10T11:36:27.797Z,3.17
2019-06-10T11:38:59.728Z,3.05
2019-06-10T11:41:33.045Z,3.15
2019-06-10T11:44:10.695Z,4.05
2019-06-10T11:46:43.144Z,3.52
2019-06-10T11:49:14.729Z,4.37
2019-06-10T11:51:47.165Z,4.35
2019-06-10T11:54:19.073Z,3.58
2019-06-10T11:56:52.911Z,3.58
2019-06-10T11:59:23.649Z,4.20
2019-06-10T12:02:00.409Z,3.85
2019-06-10T12:04:30.640Z,3.92
2019-06-10T12:07:02.393Z,4.17
2019-06-10T12:09:33.745Z,4.33
2019-06-10T12:12:05.146Z,3.95
2019-06-10T12:14:43.157Z,4.30
2019-06-10T12:17:32.725Z,3.95
2019-06-10T12:19:49.811Z,3.92
2019-06-10T12:22:22.698Z,3.60
2019-06-10T12:25:21.402Z,3.70
2019-06-10T12:27:27.301Z,4.20
2019-06-10T12:29:59.651Z,3.80
2019-06-10T12:32:33.622Z,4.62
2019-06-10T12:35:05.584Z,4.70
2019-06-10T12:37:37.357Z,3.92
2019-06-10T12:40:09.358Z,3.95
2019-06-10T12:42:41.579Z,3.92
2019-06-10T12:45:13.844Z,4.97
2019-06-10T12:47:44.847Z,4.55
2019-06-10T12:50:17.519Z,4.85
2019-06-10T12:52:52.302Z,4.67
2019-06-10T12:55:37.794Z,4.50
2019-06-10T13:00:47.867Z,4.87
2019-06-10T13:03:19.241Z,4.45
2019-06-10T13:05:53.245Z,4.58
2019-06-10T13:08:28.500Z,4.47
2019-06-10T13:11:00.116Z,4.30
2019-06-10T13:13:32.833Z,4.80
2019-06-10T13:16:08.248Z,4.12
2019-06-10T13:18:38.373Z,4.53
2019-06-10T13:21:14.811Z,4.30
2019-06-10T13:23:43.875Z,5.67
2019-06-10T13:26:16.743Z,4.92
2019-06-10T13:28:48.781Z,5.45
2019-06-10T13:31:19.984Z,5.80
2019-06-10T13:33:52.938Z,5.10
2019-06-10T13:36:26.207Z,4.90
2019-06-10T13:38:57.616Z,4.70
2019-06-10T13:41:29.054Z,4.90
2019-06-10T13:44:02.013Z,4.30
2019-06-10T13:46:35.158Z,4.72
2019-06-10T13:49:09.074Z,4.10
2019-06-10T13:51:39.020Z,3.87
2019-06-10T13:54:13.829Z,3.85
2019-06-10T13:56:47.442Z,4.35
2019-06-10T13:59:18.161Z,4.95
2019-06-10T14:01:50.216Z,4.65
2019-06-10T14:04:34.510Z,5.08
2019-06-10T14:07:08.360Z,4.40
2019-06-10T14:09:39.259Z,3.90
2019-06-10T14:12:16.642Z,3.85
2019-06-10T14:14:45.204Z,3.83
2019-06-10T14:17:19.365Z,3.98
2019-06-10T14:19:50.349Z,4.90
2019-06-10T14:22:23.002Z,5.15
2019-06-10T14:24:56.390Z,4.72
2019-06-10T14:27:28.150Z,3.80
2019-06-10T14:30:02.220Z,3.77
2019-06-10T14:32:32.974Z,4.42
2019-06-10T14:35:08.470Z,4.65
2019-06-10T14:37:39.515Z,4.13
2019-06-10T14:40:20.045Z,3.43
2019-06-10T14:42:45.265Z,5.10
2019-06-10T14:45:18.094Z,4.72
2019-06-10T14:47:49.321Z,4.50
2019-06-10T14:50:23.140Z,3.72
2019-06-10T14:52:54.031Z,4.17
2019-06-10T14:55:25.802Z,4.20
2019-06-10T14:57:58.005Z,3.80
2019-06-10T15:00:29.340Z,4.33
2019-06-10T15:03:02.412Z,4.50
2019-06-10T15:05:33.210Z,4.42
2019-06-10T15:08:04.501Z,4.37
2019-06-10T15:10:36.248Z,4.55
2019-06-10T15:13:08.075Z,3.92
2019-06-10T15:15:42.442Z,3.90
2019-06-10T15:18:16.567Z,4.20
2019-06-10T15:20:46.621Z,4.50
2019-06-10T15:23:19.141Z,4.65
2019-06-10T15:25:53.978Z,4.17
2019-06-10T15:28:24.580Z,3.33
2019-06-10T15:30:55.680Z,4.23
2019-06-10T15:33:26.878Z,3.80
2019-06-10T15:35:58.447Z,4.05
2019-06-10T15:38:29.608Z,3.75
2019-06-10T15:41:01.366Z,3.50
2019-06-10T15:43:33.131Z,3.60
2019-06-10T15:46:05.135Z,3.87
2019-06-10T15:48:36.609Z,3.62
2019-06-10T15:51:08.419Z,3.52
2019-06-10T15:53:39.676Z,3.40
2019-06-10T15:56:22.472Z,3.17
2019-06-10T15:58:43.527Z,4.10
2019-06-10T16:01:18.225Z,3.80
2019-06-10T16:03:47.892Z,3.52
2019-06-10T16:06:24.778Z,3.30
2019-06-10T16:08:57.991Z,3.27
2019-06-10T16:11:33.090Z,3.37
2019-06-10T16:14:04.664Z,3.10
2019-06-10T16:16:37.422Z,3.05
2019-06-10T16:19:08.709Z,3.80
2019-06-10T16:21:42.479Z,3.67
2019-06-10T16:24:15.506Z,3.02
2019-06-10T16:26:47.408Z,3.20
2019-06-10T16:29:19.071Z,3.40
2019-06-10T16:31:52.860Z,3.47
2019-06-10T16:34:29.061Z,3.45
2019-06-10T16:37:02.374Z,3.55
2019-06-10T16:39:34.813Z,3.37
2019-06-10T16:42:05.929Z,3.47
2019-06-10T16:44:37.073Z,3.37
2019-06-10T16:47:09.287Z,3.58
2019-06-10T16:49:42.755Z,4.05
2019-06-10T16:52:13.781Z,3.60
2019-06-10T16:54:45.852Z,3.60
2019-06-10T16:57:17.726Z,3.52
2019-06-10T16:59:49.069Z,3.20
2019-06-10T17:02:23.643Z,4.05
2019-06-10T17:04:52.960Z,3.50
2019-06-10T17:07:24.746Z,3.52
2019-06-10T17:09:55.980Z,3.10
2019-06-10T17:12:27.674Z,3.30
2019-06-10T17:15:03.294Z,4.00
2019-06-10T17:17:33.804Z,3.73
2019-06-10T17:20:05.616Z,3.37
2019-06-10T17:22:37.117Z,3.70
2019-06-10T17:25:09.177Z,4.30
2019-06-10T17:27:42.279Z,3.55
2019-06-10T17:30:13.624Z,3.77
2019-06-10T17:32:44.777Z,4.47
2019-06-10T17:35:15.848Z,3.87
2019-06-10T17:37:47.073Z,3.53
2019-06-10T17:40:18.168Z,3.70
2019-06-10T17:42:49.639Z,3.80
2019-06-10T17:45:24.337Z,3.60
2019-06-10T17:47:53.817Z,3.33
2019-06-10T17:50:26.238Z,3.50
2019-06-10T17:52:57.597Z,3.80
2019-06-10T17:55:29.736Z,3.50
2019-06-10T17:58:02.935Z,3.87
2019-06-10T18:00:36.244Z,4.40
2019-06-10T18:03:07.300Z,4.37
2019-06-10T18:05:38.584Z,5.20
2019-06-10T18:08:09.524Z,4.60
2019-06-10T18:10:40.444Z,4.50
2019-06-10T18:13:16.431Z,4.77
2019-06-10T18:15:45.830Z,4.17
2019-06-10T18:18:17.201Z,5.00
2019-06-10T18:20:48.217Z,4.53
2019-06-10T18:23:19.698Z,4.60
2019-06-10T18:25:52.714Z,5.13
2019-06-10T18:28:24.935Z,4.78
2019-06-10T18:30:56.417Z,5.37
2019-06-10T18:33:27.760Z,7.37
2019-06-10T18:35:58.769Z,7.70
2019-06-10T18:38:35.604Z,7.50
2019-06-10T18:41:06.057Z,7.13
2019-06-10T18:43:37.283Z,7.27
2019-06-10T18:46:08.653Z,8.27
2019-06-10T18:48:40.030Z,8.10
2019-06-10T18:51:12.463Z,7.70
2019-06-10T18:53:44.292Z,6.97
2019-06-10T18:56:15.475Z,8.23
2019-06-10T18:58:47.967Z,8.63
2019-06-10T19:01:19.221Z,7.67
2019-06-10T19:03:50.860Z,7.00
2019-06-10T19:06:22.916Z,6.60
2019-06-10T19:08:54.632Z,7.13
2019-06-10T19:11:25.795Z,7.70
2019-06-10T19:13:59.854Z,7.77
2019-06-10T19:16:32.241Z,7.43
2019-06-10T19:19:02.855Z,7.97
2019-06-10T19:21:34.246Z,7.47
2019-06-10T19:24:06.244Z,8.07
2019-06-10T19:26:40.029Z,8.00
2019-06-10T19:29:13.479Z,8.10
2019-06-10T19:31:46.040Z,7.07
2019-06-10T19:34:17.108Z,7.63
2019-06-10T19:36:48.449Z,7.97
2019-06-10T19:39:22.250Z,7.60
2019-06-10T19:41:53.151Z,8.03
2019-06-10T19:44:26.576Z,8.43
2019-06-10T19:46:57.809Z,7.73
2019-06-10T19:49:35.283Z,8.10
2019-06-10T19:52:07.060Z,7.73
2019-06-10T19:54:39.041Z,7.10
2019-06-10T19:57:12.724Z,7.70
2019-06-10T20:00:03.681Z,7.73
2019-06-10T20:02:17.821Z,7.93
2019-06-10T20:04:48.802Z,7.13
2019-06-10T20:07:20.025Z,7.53
2019-06-10T20:09:52.238Z,6.90
2019-06-10T20:12:23.613Z,7.63
2019-06-10T20:14:56.813Z,7.83
2019-06-10T20:17:28.205Z,7.00
2019-06-10T20:19:59.662Z,8.13
2019-06-10T20:22:32.044Z,7.83
2019-06-10T20:25:03.868Z,8.67
2019-06-10T20:27:35.980Z,8.60
2019-06-10T20:30:23.490Z,6.90
2019-06-10T20:32:45.487Z,7.17
2019-06-10T20:35:14.574Z,6.93
2019-06-10T20:37:47.355Z,6.93
2019-06-10T20:40:19.180Z,7.13
2019-06-10T20:42:50.725Z,8.37
2019-06-10T20:45:23.994Z,8.67
2019-06-10T20:47:55.966Z,8.87
2019-06-10T20:50:28.153Z,9.77
2019-06-10T20:53:11.898Z,9.37
2019-06-10T20:55:41.391Z,9.00
2019-06-10T20:58:07.548Z,8.10
2019-06-10T21:00:44.155Z,9.60
2019-06-10T21:03:12.382Z,9.53
2019-06-10T21:05:47.753Z,9.50
2019-06-10T21:08:19.336Z,8.70
2019-06-10T21:10:51.952Z,9.97
2019-06-10T21:13:23.860Z,10.27
2019-06-10T21:15:57.171Z,10.43
2019-06-10T21:18:28.169Z,9.17
2019-06-10T21:21:03.633Z,10.53
2019-06-10T21:23:35.052Z,8.90
2019-06-10T21:26:08.324Z,9.53
2019-06-10T21:28:40.560Z,9.07
2019-06-10T21:31:12.591Z,8.87
2019-06-10T21:33:45.904Z,8.00
2019-06-10T21:36:16.847Z,9.27
2019-06-10T21:38:49.384Z,10.33
2019-06-10T21:41:22.741Z,10.00
2019-06-10T21:43:59.139Z,9.37
2019-06-10T21:46:28.778Z,8.80
2019-06-10T21:49:01.057Z,8.97
2019-06-10T21:51:34.693Z,9.30
2019-06-10T21:54:05.800Z,8.93
2019-06-10T21:56:37.462Z,8.80
2019-06-10T21:59:08.658Z,7.97
2019-06-10T22:01:42.971Z,8.07
2019-06-10T22:04:13.876Z,8.33
2019-06-10T22:06:45.640Z,8.27
2019-06-10T22:09:18.893Z,8.40
2019-06-10T22:11:52.547Z,8.30
2019-06-10T22:14:24.583Z,7.67
2019-06-10T22:16:56.577Z,8.17
2019-06-10T22:19:29.367Z,8.03
2019-06-10T22:22:07.579Z,7.07
2019-06-10T22:24:42.410Z,6.97
2019-06-10T22:27:27.063Z,8.87
2019-06-10T22:29:59.370Z,8.00
2019-06-10T22:32:32.309Z,7.00
2019-06-10T22:35:04.889Z,7.93
2019-06-10T22:37:36.446Z,7.07
2019-06-10T22:40:22.506Z,7.63
2019-06-10T22:42:55.498Z,8.50
2019-06-10T22:45:28.289Z,8.87
2019-06-10T22:48:02.786Z,8.73
2019-06-10T22:50:34.415Z,8.43
2019-06-10T22:53:07.801Z,9.03
2019-06-10T22:55:39.653Z,8.00
2019-06-10T22:58:14.215Z,7.63
2019-06-10T23:00:44.657Z,8.63
2019-06-10T23:03:16.166Z,8.13
2019-06-10T23:05:48.186Z,8.10
2019-06-10T23:08:20.215Z,7.27
2019-06-10T23:10:53.713Z,7.73
2019-06-10T23:13:25.077Z,7.43
2019-06-10T23:15:58.285Z,8.03
2019-06-10T23:18:32.112Z,7.67
2019-06-10T23:21:04.947Z,7.53
2019-06-10T23:23:36.611Z,7.73
2019-06-10T23:26:08.442Z,8.60
2019-06-10T23:28:42.110Z,7.70
2019-06-10T23:31:13.241Z,7.17
2019-06-10T23:33:44.497Z,7.23
2019-06-10T23:36:16.529Z,6.67
2019-06-10T23:38:48.390Z,7.57
2019-06-10T23:41:22.150Z,7.43
2019-06-10T23:43:53.413Z,6.77
2019-06-10T23:46:24.825Z,7.30
2019-06-10T23:49:04.401Z,7.57
2019-06-10T23:51:35.199Z,8.20
2019-06-10T23:54:06.567Z,8.63
2019-06-10T23:56:39.549Z,8.23
2019-06-10T23:59:12.037Z,7.90
